createdAt,value
2023-09-17T00:02:38.343Z,14.17
2023-09-17T00:17:39.134Z,13.92
2023-09-17T00:32:40.037Z,13.88
2023-09-17T00:47:40.594Z,13.88
2023-09-17T01:02:43.847Z,13.76
2023-09-17T01:17:41.641Z,13.59
2023-09-17T01:32:42.435Z,13.63
2023-09-17T01:47:42.971Z,13.49
2023-09-17T02:02:43.892Z,13.45
2023-09-17T02:17:44.638Z,13.52
2023-09-17T02:32:45.201Z,13.29
2023-09-17T02:47:45.828Z,13.04
2023-09-17T03:02:46.407Z,13.13
2023-09-17T03:17:46.696Z,13.15
2023-09-17T03:33:01.972Z,12.92
2023-09-17T03:47:48.933Z,12.90
2023-09-17T04:02:48.108Z,12.86
2023-09-17T04:17:48.889Z,12.72
2023-09-17T04:32:51.694Z,12.46
2023-09-17T04:47:50.016Z,12.61
2023-09-17T05:02:51.024Z,12.59
2023-09-17T05:17:51.236Z,12.58
2023-09-17T05:32:51.947Z,12.82
2023-09-17T05:47:52.769Z,13.56
2023-09-17T06:02:53.259Z,14.49
2023-09-17T06:17:54.036Z,15.04
2023-09-17T06:32:54.932Z,15.81
2023-09-17T06:47:55.466Z,16.61
2023-09-17T07:02:55.852Z,17.40
2023-09-17T07:17:56.339Z,18.25
2023-09-17T07:32:57.176Z,19.02
2023-09-17T07:47:57.783Z,19.76
2023-09-17T08:02:58.349Z,20.21
2023-09-17T08:17:59.077Z,20.72
2023-09-17T08:32:59.617Z,21.22
2023-09-17T08:48:00.437Z,21.83
2023-09-17T09:03:01.363Z,22.20
2023-09-17T09:18:02.122Z,23.60
2023-09-17T09:33:02.522Z,24.71
2023-09-17T09:48:03.241Z,25.33
2023-09-17T10:03:03.733Z,27.32
2023-09-17T10:18:04.314Z,27.13
2023-09-17T10:33:05.058Z,28.27
2023-09-17T10:48:05.804Z,28.64
2023-09-17T11:03:06.477Z,28.85
2023-09-17T11:18:06.761Z,28.67
2023-09-17T11:33:07.475Z,28.74
2023-09-17T11:48:07.803Z,28.94
2023-09-17T12:03:08.338Z,29.48
2023-09-17T12:18:09.078Z,29.46
2023-09-17T12:33:09.851Z,28.80
2023-09-17T12:48:10.405Z,29.26
2023-09-17T13:03:10.832Z,29.25
2023-09-17T13:18:11.450Z,29.27
2023-09-17T13:33:12.236Z,30.29
2023-09-17T13:48:13.222Z,29.71
2023-09-17T14:03:13.722Z,30.21
2023-09-17T14:18:14.526Z,29.37
2023-09-17T14:33:15.374Z,29.78
2023-09-17T14:48:15.964Z,29.21
2023-09-17T15:03:17.107Z,29.22
2023-09-17T15:18:16.953Z,29.12
2023-09-17T15:33:17.339Z,28.72
2023-09-17T15:48:17.623Z,27.75
2023-09-17T16:03:20.441Z,27.05
2023-09-17T16:18:19.021Z,27.02
2023-09-17T16:33:19.958Z,26.33
2023-09-17T16:48:20.447Z,25.79
2023-09-17T17:03:21.074Z,25.17
2023-09-17T17:18:21.378Z,24.53
2023-09-17T17:33:21.935Z,24.05
2023-09-17T17:48:43.421Z,23.58
2023-09-17T18:03:24.533Z,23.15
2023-09-17T18:18:45.417Z,22.66
2023-09-17T18:33:24.824Z,22.13
2023-09-17T18:48:25.767Z,21.86
2023-09-17T19:03:26.626Z,21.57
2023-09-17T19:18:27.113Z,21.28
2023-09-17T19:33:27.889Z,20.37
2023-09-17T20:03:29.289Z,19.32
2023-09-17T20:18:29.824Z,19.56
2023-09-17T20:33:30.344Z,19.51
2023-09-17T20:48:31.074Z,19.49
2023-09-17T21:03:31.923Z,19.16
2023-09-17T21:18:37.553Z,18.56
2023-09-17T21:33:32.712Z,18.00
2023-09-17T21:48:33.497Z,17.82
2023-09-17T22:03:34.414Z,18.05
2023-09-17T22:18:35.199Z,18.01
2023-09-17T22:33:35.429Z,17.97
2023-09-17T22:48:35.954Z,17.94
2023-09-17T23:03:36.611Z,17.85
2023-09-17T23:18:37.319Z,17.76
2023-09-17T23:33:38.174Z,17.56
2023-09-17T23:48:39.116Z,17.43
